createdAt,value
2023-01-08T00:00:00.339Z,1.40
2023-01-08T00:02:26.549Z,1.40
2023-01-08T00:04:52.987Z,1.50
2023-01-08T00:07:20.010Z,1.50
2023-01-08T00:09:49.623Z,1.30
2023-01-08T00:12:16.799Z,1.20
2023-01-08T00:14:43.088Z,1.20
2023-01-08T00:17:09.373Z,1.20
2023-01-08T00:19:37.024Z,1.20
2023-01-08T00:22:03.194Z,1.40
2023-01-08T00:24:29.543Z,1.20
2023-01-08T00:26:57.998Z,1.30
2023-01-08T00:29:25.332Z,1.40
2023-01-08T00:31:52.887Z,1.30
2023-01-08T00:34:19.108Z,1.30
2023-01-08T00:36:45.508Z,1.30
2023-01-08T00:39:11.997Z,1.20
2023-01-08T00:41:38.374Z,1.30
2023-01-08T00:44:04.728Z,1.20
2023-01-08T00:46:30.892Z,1.30
2023-01-08T00:48:57.069Z,1.30
2023-01-08T00:51:23.227Z,1.40
2023-01-08T00:53:49.640Z,1.70
2023-01-08T00:56:15.899Z,1.20
2023-01-08T00:58:42.026Z,1.20
2023-01-08T01:01:12.341Z,2.10
2023-01-08T01:03:38.604Z,1.10
2023-01-08T01:06:05.651Z,1.20
2023-01-08T01:08:32.490Z,0.50
2023-01-08T01:10:59.323Z,1.30
2023-01-08T01:13:25.579Z,1.20
2023-01-08T01:16:01.066Z,1.30
2023-01-08T01:18:27.565Z,1.20
2023-01-08T01:20:53.969Z,1.10
2023-01-08T01:23:21.117Z,1.10
2023-01-08T01:25:47.337Z,1.00
2023-01-08T01:28:13.677Z,1.00
2023-01-08T01:30:40.779Z,1.00
2023-01-08T01:33:07.170Z,1.10
2023-01-08T01:35:33.483Z,1.10
2023-01-08T01:38:00.620Z,1.10
2023-01-08T01:40:26.897Z,1.10
2023-01-08T01:42:53.375Z,1.10
2023-01-08T01:45:22.187Z,1.10
2023-01-08T01:48:11.361Z,1.10
2023-01-08T01:50:48.233Z,1.10
2023-01-08T01:53:26.693Z,1.10
2023-01-08T01:55:53.174Z,1.10
2023-01-08T01:58:25.166Z,1.00
2023-01-08T02:00:52.981Z,0.90
2023-01-08T02:03:25.114Z,0.90
2023-01-08T02:06:00.610Z,1.00
2023-01-08T02:09:00.603Z,0.90
2023-01-08T02:13:03.730Z,1.00
2023-01-08T02:16:46.648Z,0.90
2023-01-08T02:19:40.732Z,0.80
2023-01-08T02:27:14.489Z,0.70
2023-01-08T02:29:40.804Z,0.60
2023-01-08T02:32:06.982Z,0.50
2023-01-08T02:34:33.355Z,0.50
2023-01-08T02:36:59.561Z,0.50
2023-01-08T02:41:17.830Z,0.60
2023-01-08T02:43:46.416Z,0.70
2023-01-08T02:46:18.855Z,0.70
2023-01-08T02:48:56.710Z,0.60
2023-01-08T02:51:28.721Z,0.50
2023-01-08T02:53:58.750Z,0.50
2023-01-08T02:56:28.069Z,0.60
2023-01-08T02:58:54.204Z,0.70
2023-01-08T03:01:21.762Z,0.90
2023-01-08T03:03:53.110Z,0.90
2023-01-08T03:06:19.681Z,0.70
2023-01-08T03:08:48.169Z,0.60
2023-01-08T03:11:19.665Z,0.60
2023-01-08T03:13:57.987Z,0.50
2023-01-08T03:16:41.992Z,0.50
2023-01-08T03:19:18.695Z,0.30
2023-01-08T03:21:44.875Z,0.30
2023-01-08T03:24:14.330Z,0.30
2023-01-08T03:26:40.753Z,0.10
2023-01-08T03:29:09.238Z,0.10
2023-01-08T03:31:35.441Z,0.30
2023-01-08T03:34:03.172Z,0.10
2023-01-08T03:36:29.363Z,0.20
2023-01-08T03:39:17.600Z,0.20
2023-01-08T03:41:43.711Z,0.20
2023-01-08T03:44:10.049Z,0.20
2023-01-08T03:46:41.253Z,0.20
2023-01-08T03:49:07.635Z,0.20
2023-01-08T03:51:45.070Z,0.20
2023-01-08T03:54:16.952Z,0.20
2023-01-08T03:56:43.615Z,0.50
2023-01-08T03:59:13.218Z,0.50
2023-01-08T04:01:39.470Z,0.40
2023-01-08T04:04:07.270Z,0.50
2023-01-08T04:06:33.757Z,0.50
2023-01-08T04:09:00.008Z,0.60
2023-01-08T04:11:26.186Z,0.60
2023-01-08T04:13:58.783Z,0.60
2023-01-08T04:16:25.006Z,0.60
2023-01-08T04:18:51.330Z,0.60
2023-01-08T04:21:17.567Z,0.70
2023-01-08T04:23:43.892Z,0.70
2023-01-08T04:26:10.513Z,0.60
2023-01-08T04:28:36.728Z,0.60
2023-01-08T04:31:07.162Z,0.60
2023-01-08T04:33:33.603Z,0.50
2023-01-08T04:35:59.944Z,0.50
2023-01-08T04:38:26.451Z,0.40
2023-01-08T04:40:59.918Z,0.50
2023-01-08T04:43:26.471Z,0.40
2023-01-08T04:45:52.981Z,0.40
2023-01-08T04:48:19.372Z,0.50
2023-01-08T04:50:45.594Z,0.50
2023-01-08T04:53:12.059Z,3.00
2023-01-08T04:55:39.758Z,0.60
2023-01-08T04:58:06.341Z,0.60
2023-01-08T05:00:32.523Z,0.70
2023-01-08T05:02:58.899Z,0.70
2023-01-08T05:05:25.263Z,0.70
2023-01-08T05:07:51.650Z,0.60
2023-01-08T05:10:17.983Z,0.60
2023-01-08T05:12:44.106Z,0.90
2023-01-08T05:15:11.303Z,0.60
2023-01-08T05:17:37.431Z,0.50
2023-01-08T05:20:04.598Z,0.60
2023-01-08T05:22:30.759Z,0.60
2023-01-08T05:24:56.902Z,0.60
2023-01-08T05:27:23.033Z,0.60
2023-01-08T05:29:50.376Z,0.60
2023-01-08T05:32:17.384Z,0.80
2023-01-08T05:34:44.471Z,0.60
2023-01-08T05:37:11.004Z,0.60
2023-01-08T05:39:37.428Z,0.70
2023-01-08T05:42:04.016Z,0.80
2023-01-08T05:44:30.282Z,0.80
2023-01-08T05:46:57.312Z,0.70
2023-01-08T05:49:23.481Z,0.70
2023-01-08T05:51:50.504Z,1.10
2023-01-08T05:54:16.670Z,0.50
2023-01-08T05:56:43.527Z,0.50
2023-01-08T05:59:11.580Z,0.50
2023-01-08T06:01:37.776Z,0.60
2023-01-08T06:04:04.761Z,0.70
2023-01-08T06:06:31.097Z,0.60
2023-01-08T06:08:57.468Z,0.50
2023-01-08T06:11:23.699Z,0.50
2023-01-08T06:13:49.885Z,0.40
2023-01-08T06:16:17.051Z,0.40
2023-01-08T06:18:43.255Z,0.50
2023-01-08T06:21:09.405Z,0.50
2023-01-08T06:23:36.140Z,0.50
2023-01-08T06:26:04.841Z,0.40
2023-01-08T06:28:31.494Z,0.40
2023-01-08T06:31:01.119Z,0.30
2023-01-08T06:33:28.068Z,0.30
2023-01-08T06:35:54.499Z,0.40
2023-01-08T06:38:20.698Z,0.50
2023-01-08T06:40:48.209Z,0.40
2023-01-08T06:43:14.587Z,0.40
2023-01-08T06:45:40.722Z,0.40
2023-01-08T06:48:07.445Z,0.70
2023-01-08T06:50:33.940Z,0.50
2023-01-08T06:53:00.699Z,0.60
2023-01-08T06:55:27.066Z,0.70
2023-01-08T06:57:57.466Z,0.90
2023-01-08T07:00:25.327Z,1.00
2023-01-08T07:02:55.220Z,1.10
2023-01-08T07:05:22.483Z,0.90
2023-01-08T07:07:50.121Z,0.90
2023-01-08T07:10:18.588Z,0.90
2023-01-08T07:12:46.626Z,1.00
2023-01-08T07:15:12.801Z,1.00
2023-01-08T07:17:38.970Z,1.10
2023-01-08T07:20:07.228Z,1.60
2023-01-08T07:22:33.668Z,1.20
2023-01-08T07:24:59.910Z,1.10
2023-01-08T07:27:26.375Z,1.10
2023-01-08T07:29:55.241Z,1.10
2023-01-08T07:32:21.688Z,1.20
2023-01-08T07:34:48.906Z,1.20
2023-01-08T07:37:15.128Z,1.30
2023-01-08T07:39:41.482Z,1.30
2023-01-08T07:42:07.628Z,1.30
2023-01-08T07:44:35.158Z,1.30
2023-01-08T07:47:01.688Z,1.30
2023-01-08T07:49:28.769Z,1.20
2023-01-08T07:51:55.025Z,1.30
2023-01-08T07:54:21.242Z,1.40
2023-01-08T07:56:47.421Z,1.40
2023-01-08T07:59:13.646Z,1.40
2023-01-08T08:01:41.135Z,1.50
2023-01-08T08:04:07.944Z,1.60
2023-01-08T08:06:34.090Z,1.70
2023-01-08T08:09:00.540Z,1.80
2023-01-08T08:11:26.742Z,2.00
2023-01-08T08:13:54.660Z,2.00
2023-01-08T08:16:22.171Z,2.10
2023-01-08T08:18:48.398Z,2.20
2023-01-08T08:21:14.543Z,2.20
2023-01-08T08:23:40.939Z,2.40
2023-01-08T08:26:07.791Z,2.50
2023-01-08T08:28:34.106Z,2.60
2023-01-08T08:31:00.520Z,2.60
2023-01-08T08:33:27.096Z,2.60
2023-01-08T08:35:54.571Z,2.70
2023-01-08T08:38:23.177Z,2.80
2023-01-08T08:40:50.319Z,3.00
2023-01-08T08:43:16.619Z,3.20
2023-01-08T08:45:42.823Z,3.10
2023-01-08T08:48:09.107Z,3.20
2023-01-08T08:50:36.313Z,3.20
2023-01-08T08:53:03.450Z,3.40
2023-01-08T08:55:30.091Z,3.70
2023-01-08T08:58:06.045Z,4.20
2023-01-08T09:00:32.395Z,4.40
2023-01-08T09:02:58.877Z,4.60
2023-01-08T09:05:25.950Z,4.70
2023-01-08T09:07:53.862Z,4.80
2023-01-08T09:10:21.580Z,5.00
2023-01-08T09:12:48.014Z,5.20
2023-01-08T09:15:14.301Z,5.40
2023-01-08T09:17:40.541Z,5.60
2023-01-08T09:20:07.546Z,5.80
2023-01-08T09:22:34.174Z,6.10
2023-01-08T09:25:01.704Z,6.00
2023-01-08T09:27:27.929Z,6.20
2023-01-08T09:29:54.116Z,6.30
2023-01-08T09:32:20.490Z,6.00
2023-01-08T09:34:46.679Z,6.70
2023-01-08T09:37:12.818Z,6.80
2023-01-08T09:39:40.169Z,6.90
2023-01-08T09:42:07.401Z,7.10
2023-01-08T09:44:42.004Z,7.20
2023-01-08T09:47:49.800Z,7.10
2023-01-08T09:50:16.130Z,7.30
2023-01-08T09:52:43.864Z,7.80
2023-01-08T09:55:14.367Z,8.10
2023-01-08T09:57:40.625Z,8.20
2023-01-08T10:00:24.137Z,8.50
2023-01-08T10:02:51.473Z,9.00
2023-01-08T10:05:18.251Z,9.00
2023-01-08T10:07:45.293Z,9.10
2023-01-08T10:10:26.425Z,9.10
2023-01-08T10:12:53.087Z,9.10
2023-01-08T10:15:20.034Z,9.10
2023-01-08T10:17:51.139Z,9.10
2023-01-08T10:20:19.687Z,9.00
2023-01-08T10:22:47.847Z,9.20
2023-01-08T10:25:19.925Z,9.20
2023-01-08T10:28:04.982Z,9.40
2023-01-08T10:30:39.314Z,9.50
2023-01-08T10:33:10.063Z,9.60
2023-01-08T10:35:40.325Z,9.60
2023-01-08T10:38:07.083Z,9.70
2023-01-08T10:41:09.962Z,9.90
2023-01-08T10:43:53.736Z,9.80
2023-01-08T10:46:24.377Z,9.90
2023-01-08T10:48:52.040Z,12.10
2023-01-08T10:51:26.354Z,9.60
2023-01-08T10:53:54.209Z,9.60
2023-01-08T10:56:28.828Z,9.70
2023-01-08T10:58:55.459Z,9.60
2023-01-08T11:01:30.095Z,9.60
2023-01-08T11:04:01.224Z,9.50
2023-01-08T11:06:30.936Z,9.40
2023-01-08T11:08:58.693Z,9.50
2023-01-08T11:11:32.023Z,9.30
2023-01-08T11:14:03.071Z,9.00
2023-01-08T11:16:39.608Z,9.00
2023-01-08T11:19:15.249Z,9.10
2023-01-08T11:21:42.501Z,9.10
2023-01-08T11:24:18.107Z,9.00
2023-01-08T11:28:38.361Z,9.00
2023-01-08T11:31:14.927Z,9.00
2023-01-08T11:33:42.630Z,9.20
2023-01-08T11:36:23.664Z,9.40
2023-01-08T11:38:49.995Z,9.50
2023-01-08T11:41:38.516Z,9.40
2023-01-08T11:48:34.375Z,11.00
2023-01-08T11:51:35.254Z,9.30
2023-01-08T11:54:20.271Z,9.20
2023-01-08T11:57:16.123Z,9.00
2023-01-08T12:00:08.275Z,11.00
2023-01-08T12:02:59.340Z,8.90
2023-01-08T12:05:47.644Z,8.90
2023-01-08T12:12:18.182Z,9.00
2023-01-08T12:18:01.003Z,9.10
2023-01-08T12:21:18.392Z,9.20
2023-01-08T12:24:15.381Z,9.10
2023-01-08T12:30:12.536Z,9.10
2023-01-08T12:32:54.483Z,9.20
2023-01-08T12:35:40.356Z,9.30
2023-01-08T12:38:22.466Z,9.30
2023-01-08T12:41:49.284Z,9.20
2023-01-08T12:44:28.092Z,9.00
2023-01-08T12:46:56.578Z,9.00
2023-01-08T12:49:44.121Z,8.90
2023-01-08T12:52:22.629Z,8.90
2023-01-08T12:55:01.819Z,8.80
2023-01-08T12:57:44.080Z,8.80
2023-01-08T13:01:51.170Z,8.70
2023-01-08T13:04:17.767Z,8.60
2023-01-08T13:07:03.545Z,8.50
2023-01-08T13:09:30.846Z,8.40
2023-01-08T13:11:58.785Z,8.30
2023-01-08T13:14:27.360Z,8.20
2023-01-08T13:17:06.694Z,8.20
2023-01-08T13:19:44.010Z,8.20
2023-01-08T13:22:35.974Z,8.10
2023-01-08T13:28:52.163Z,8.00
2023-01-08T13:31:27.379Z,7.80
2023-01-08T13:33:54.243Z,7.70
2023-01-08T13:36:30.987Z,7.60
2023-01-08T13:39:23.823Z,7.60
2023-01-08T13:42:02.040Z,7.50
2023-01-08T13:44:36.975Z,7.40
2023-01-08T13:47:07.273Z,7.40
2023-01-08T13:49:45.052Z,7.40
2023-01-08T13:59:01.338Z,7.30
2023-01-08T14:01:27.707Z,7.20
2023-01-08T14:03:54.461Z,7.20
2023-01-08T14:06:28.424Z,7.10
2023-01-08T14:09:04.081Z,7.00
2023-01-08T14:12:05.031Z,7.00
2023-01-08T14:14:31.285Z,7.00
2023-01-08T14:16:58.577Z,6.80
2023-01-08T14:19:25.317Z,6.80
2023-01-08T14:21:57.769Z,6.70
2023-01-08T14:24:24.858Z,6.70
2023-01-08T14:26:55.702Z,6.70
2023-01-08T14:29:23.977Z,6.60
2023-01-08T14:31:53.178Z,6.50
2023-01-08T14:34:23.868Z,6.40
2023-01-08T14:36:51.248Z,6.30
2023-01-08T14:39:34.873Z,6.20
2023-01-08T14:42:24.494Z,6.10
2023-01-08T14:45:07.280Z,6.00
2023-01-08T14:47:39.021Z,5.90
2023-01-08T14:50:06.416Z,5.80
2023-01-08T14:52:33.022Z,5.70
2023-01-08T14:54:59.755Z,5.70
2023-01-08T14:57:26.871Z,5.50
2023-01-08T14:59:55.409Z,5.50
2023-01-08T15:02:32.637Z,5.40
2023-01-08T15:05:33.536Z,5.40
2023-01-08T15:08:49.000Z,5.10
2023-01-08T15:11:33.950Z,5.30
2023-01-08T15:14:01.321Z,5.20
2023-01-08T15:16:38.503Z,5.00
2023-01-08T15:19:17.666Z,5.00
2023-01-08T15:21:48.178Z,5.00
2023-01-08T15:24:40.216Z,5.00
2023-01-08T15:27:09.724Z,4.90
2023-01-08T15:29:46.053Z,4.90
2023-01-08T15:32:36.654Z,4.90
2023-01-08T15:35:27.082Z,4.90
2023-01-08T15:37:53.596Z,4.90
2023-01-08T15:40:20.386Z,5.00
2023-01-08T15:43:06.669Z,5.00
2023-01-08T15:45:33.152Z,5.00
2023-01-08T15:47:59.789Z,5.10
2023-01-08T15:50:26.859Z,5.20
2023-01-08T15:52:53.487Z,5.20
2023-01-08T15:55:21.551Z,5.10
2023-01-08T15:57:47.797Z,5.10
2023-01-08T16:00:15.320Z,5.20
2023-01-08T16:02:47.263Z,5.10
2023-01-08T16:05:15.596Z,6.60
2023-01-08T16:07:42.541Z,5.20
2023-01-08T16:10:10.070Z,5.10
2023-01-08T16:12:37.934Z,5.10
2023-01-08T16:15:07.830Z,5.20
2023-01-08T16:17:36.872Z,5.20
2023-01-08T16:20:06.078Z,5.30
2023-01-08T16:22:36.089Z,5.30
2023-01-08T16:25:04.727Z,5.20
2023-01-08T16:27:32.227Z,5.30
2023-01-08T16:29:59.961Z,5.20
2023-01-08T16:32:26.178Z,5.20
2023-01-08T16:34:55.207Z,5.10
2023-01-08T16:37:24.163Z,5.10
2023-01-08T16:39:51.484Z,5.10
2023-01-08T16:42:20.221Z,5.10
2023-01-08T16:44:46.402Z,5.10
2023-01-08T16:47:13.351Z,5.10
2023-01-08T16:49:41.814Z,5.10
2023-01-08T16:52:10.074Z,5.10
2023-01-08T16:54:38.254Z,4.90
2023-01-08T16:57:04.850Z,4.90
2023-01-08T16:59:32.822Z,4.80
2023-01-08T17:02:02.161Z,5.00
2023-01-08T17:04:29.999Z,5.10
2023-01-08T17:06:58.509Z,5.10
2023-01-08T17:09:27.335Z,5.10
2023-01-08T17:11:54.397Z,5.10
2023-01-08T17:14:21.445Z,5.10
2023-01-08T17:16:48.929Z,5.00
2023-01-08T17:19:16.990Z,4.90
2023-01-08T17:21:48.107Z,4.90
2023-01-08T17:24:14.545Z,4.80
2023-01-08T17:26:40.998Z,4.80
2023-01-08T17:29:07.676Z,4.80
2023-01-08T17:31:40.450Z,4.80
2023-01-08T17:34:08.359Z,4.70
2023-01-08T17:36:35.621Z,4.60
2023-01-08T17:39:03.547Z,4.60
2023-01-08T17:41:50.768Z,4.60
2023-01-08T17:44:19.044Z,4.60
2023-01-08T17:46:45.770Z,4.60
2023-01-08T17:49:14.241Z,4.60
2023-01-08T17:51:42.281Z,4.60
2023-01-08T17:54:17.364Z,4.60
2023-01-08T17:56:45.300Z,4.60
2023-01-08T17:59:17.035Z,4.60
2023-01-08T18:01:45.573Z,4.60
2023-01-08T18:04:13.910Z,4.70
2023-01-08T18:06:41.116Z,4.70
2023-01-08T18:09:09.711Z,4.70
2023-01-08T18:11:42.791Z,4.80
2023-01-08T18:14:14.432Z,4.90
2023-01-08T18:16:44.810Z,5.00
2023-01-08T18:19:12.329Z,4.80
2023-01-08T18:21:40.396Z,4.70
2023-01-08T18:24:08.264Z,4.80
2023-01-08T18:26:37.037Z,4.80
2023-01-08T18:29:05.022Z,4.80
2023-01-08T18:31:36.062Z,4.80
2023-01-08T18:34:04.449Z,4.70
2023-01-08T18:36:32.916Z,4.70
2023-01-08T18:39:00.051Z,4.80
2023-01-08T18:41:47.977Z,4.90
2023-01-08T18:44:14.939Z,4.90
2023-01-08T18:46:51.645Z,4.90
2023-01-08T18:49:20.481Z,4.90
2023-01-08T18:51:48.243Z,4.90
2023-01-08T18:54:15.070Z,5.00
2023-01-08T18:56:41.861Z,5.00
2023-01-08T18:59:09.522Z,5.00
2023-01-08T19:01:40.138Z,5.00
2023-01-08T19:04:09.841Z,4.90
2023-01-08T19:06:37.992Z,4.90
2023-01-08T19:09:06.429Z,4.90
2023-01-08T19:11:36.384Z,5.00
2023-01-08T19:14:05.095Z,5.00
2023-01-08T19:16:34.253Z,4.90
2023-01-08T19:19:04.385Z,4.90
2023-01-08T19:21:32.846Z,5.00
2023-01-08T19:23:59.452Z,5.00
2023-01-08T19:26:26.708Z,5.00
2023-01-08T19:28:54.278Z,5.00
2023-01-08T19:31:20.923Z,4.90
2023-01-08T19:33:47.703Z,4.90
2023-01-08T19:36:15.495Z,4.90
2023-01-08T19:38:45.698Z,4.90
2023-01-08T19:41:32.482Z,4.90
2023-01-08T19:44:00.529Z,4.90
2023-01-08T19:46:27.605Z,4.90
2023-01-08T19:49:00.758Z,5.00
2023-01-08T19:51:29.763Z,7.50
2023-01-08T19:53:56.741Z,4.80
2023-01-08T19:56:24.539Z,4.80
2023-01-08T19:58:51.376Z,4.70
2023-01-08T20:01:21.822Z,4.70
2023-01-08T20:03:48.628Z,6.80
2023-01-08T20:06:31.168Z,4.60
2023-01-08T20:08:59.945Z,4.60
2023-01-08T20:11:27.025Z,4.60
2023-01-08T20:13:54.882Z,4.60
2023-01-08T20:16:21.896Z,4.60
2023-01-08T20:18:49.312Z,4.60
2023-01-08T20:21:19.083Z,4.60
2023-01-08T20:23:46.977Z,4.60
2023-01-08T20:26:17.880Z,4.60
2023-01-08T20:28:46.703Z,4.50
2023-01-08T20:31:22.930Z,4.50
2023-01-08T20:33:51.059Z,4.40
2023-01-08T20:36:22.892Z,4.40
2023-01-08T20:38:54.294Z,4.30
2023-01-08T20:41:21.956Z,4.30
2023-01-08T20:43:49.055Z,4.20
2023-01-08T20:46:16.173Z,4.20
2023-01-08T20:48:48.239Z,4.20
2023-01-08T20:51:16.381Z,4.10
2023-01-08T20:53:44.048Z,4.00
2023-01-08T20:56:14.373Z,3.90
2023-01-08T20:58:47.083Z,3.80
2023-01-08T21:01:24.198Z,3.70
2023-01-08T21:03:54.857Z,3.60
2023-01-08T21:06:22.994Z,3.50
2023-01-08T21:08:54.723Z,3.40
2023-01-08T21:11:22.599Z,3.40
2023-01-08T21:13:50.424Z,3.20
2023-01-08T21:16:24.624Z,3.00
2023-01-08T21:18:53.553Z,2.90
2023-01-08T21:21:26.115Z,2.80
2023-01-08T21:23:56.200Z,2.70
2023-01-08T21:26:23.746Z,2.70
2023-01-08T21:28:51.426Z,2.60
2023-01-08T21:31:29.295Z,2.70
2023-01-08T21:33:58.792Z,2.70
2023-01-08T21:36:28.688Z,2.60
2023-01-08T21:38:59.027Z,2.60
2023-01-08T21:41:44.368Z,2.60
2023-01-08T21:44:34.245Z,2.50
2023-01-08T21:47:01.558Z,2.50
2023-01-08T21:49:29.014Z,2.30
2023-01-08T21:52:14.023Z,2.20
2023-01-08T21:54:40.873Z,2.20
2023-01-08T21:57:07.980Z,2.20
2023-01-08T21:59:34.552Z,2.20
2023-01-08T22:02:02.059Z,2.20
2023-01-08T22:04:29.376Z,2.30
2023-01-08T22:06:55.797Z,2.30
2023-01-08T22:09:22.536Z,3.80
2023-01-08T22:11:53.203Z,2.30
2023-01-08T22:14:20.290Z,2.10
2023-01-08T22:16:49.036Z,2.20
2023-01-08T22:19:19.167Z,2.20
2023-01-08T22:21:48.320Z,2.30
2023-01-08T22:24:14.845Z,2.40
2023-01-08T22:26:42.589Z,2.40
2023-01-08T22:29:10.160Z,2.40
2023-01-08T22:31:36.631Z,2.30
2023-01-08T22:34:06.110Z,2.10
2023-01-08T22:36:36.790Z,1.90
2023-01-08T22:39:04.803Z,1.70
2023-01-08T22:41:31.742Z,1.60
2023-01-08T22:43:58.117Z,1.60
2023-01-08T22:46:24.982Z,1.60
2023-01-08T22:48:51.663Z,1.60
2023-01-08T22:51:21.395Z,1.60
2023-01-08T22:53:47.625Z,1.60
2023-01-08T22:56:14.171Z,1.60
2023-01-08T22:58:41.173Z,1.70
2023-01-08T23:01:29.454Z,1.60
2023-01-08T23:03:58.104Z,1.60
2023-01-08T23:06:26.011Z,1.80
2023-01-08T23:08:55.660Z,1.60
2023-01-08T23:11:22.442Z,2.70
2023-01-08T23:13:50.500Z,1.70
2023-01-08T23:16:17.241Z,1.70
2023-01-08T23:18:43.704Z,1.60
2023-01-08T23:21:11.913Z,1.50
2023-01-08T23:23:38.193Z,1.40
2023-01-08T23:26:17.150Z,1.40
2023-01-08T23:28:43.526Z,1.50
2023-01-08T23:31:10.929Z,1.50
2023-01-08T23:33:39.034Z,1.50
2023-01-08T23:36:06.414Z,1.40
2023-01-08T23:38:32.817Z,1.40
2023-01-08T23:40:59.347Z,1.40
2023-01-08T23:43:25.608Z,1.40
2023-01-08T23:45:52.395Z,1.40
2023-01-08T23:48:18.702Z,1.40
2023-01-08T23:50:46.215Z,1.30
2023-01-08T23:53:12.534Z,1.30
2023-01-08T23:55:38.787Z,1.40
2023-01-08T23:58:05.309Z,1.50
